sensor_id;sensor_type;location;lat;lon;timestamp;pressure;altitude;pressure_sealevel;temperature;humidity
13027;BME280;6580;42.680;23.324;2024-01-10T00:00:42;96418.38;;;-3.25;100.00
13027;BME280;6580;42.680;23.324;2024-01-10T00:03:12;96420.75;;;-3.18;100.00
13027;BME280;6580;42.680;23.324;2024-01-10T00:05:40;96414.53;;;-3.12;100.00
13027;BME280;6580;42.680;23.324;2024-01-10T00:08:07;96411.25;;;-3.19;100.00
13027;BME280;6580;42.680;23.324;2024-01-10T00:10:36;96415.28;;;-3.09;100.00
13027;BME280;6580;42.680;23.324;2024-01-10T00:13:06;96419.16;;;-3.22;100.00
13027;BME280;6580;42.680;23.324;2024-01-10T00:15:33;96414.53;;;-3.12;100.00
13027;BME280;6580;42.680;23.324;2024-01-10T00:18:01;96427.47;;;-3.09;100.00
13027;BME280;6580;42.680;23.324;2024-01-10T00:20:28;96423.50;;;-3.22;100.00
13027;BME280;6580;42.680;23.324;2024-01-10T00:22:56;96428.47;;;-3.15;100.00
13027;BME280;6580;42.680;23.324;2024-01-10T00:25:23;96422.56;;;-2.93;100.00
13027;BME280;6580;42.680;23.324;2024-01-10T00:27:50;96428.50;;;-2.89;100.00
13027;BME280;6580;42.680;23.324;2024-01-10T00:30:19;96426.91;;;-2.93;100.00
13027;BME280;6580;42.680;23.324;2024-01-10T00:32:47;96426.72;;;-2.87;100.00
13027;BME280;6580;42.680;23.324;2024-01-10T00:35:14;96430.56;;;-2.99;100.00
13027;BME280;6580;42.680;23.324;2024-01-10T00:37:43;96430.56;;;-2.99;99.76
13027;BME280;6580;42.680;23.324;2024-01-10T00:40:10;96436.09;;;-3.09;99.13
13027;BME280;6580;42.680;23.324;2024-01-10T00:42:38;96427.78;;;-3.20;99.78
13027;BME280;6580;42.680;23.324;2024-01-10T00:45:08;96437.63;;;-3.29;100.00
13027;BME280;6580;42.680;23.324;2024-01-10T00:47:37;96432.69;;;-3.38;100.00
13027;BME280;6580;42.680;23.324;2024-01-10T00:50:05;96430.81;;;-3.33;100.00
13027;BME280;6580;42.680;23.324;2024-01-10T00:52:52;96440.00;;;-3.22;100.00
13027;BME280;6580;42.680;23.324;2024-01-10T00:55:19;96436.38;;;-3.18;98.65
13027;BME280;6580;42.680;23.324;2024-01-10T00:57:46;96431.00;;;-3.12;99.44
13027;BME280;6580;42.680;23.324;2024-01-10T01:00:14;96394.84;;;-3.48;99.05
13027;BME280;6580;42.680;23.324;2024-01-10T01:02:43;96437.72;;;-3.05;100.00
13027;BME280;6580;42.680;23.324;2024-01-10T01:05:10;96429.84;;;-3.03;99.68
13027;BME280;6580;42.680;23.324;2024-01-10T01:07:37;96432.53;;;-3.06;97.98
13027;BME280;6580;42.680;23.324;2024-01-10T01:10:06;96438.00;;;-3.14;98.59
13027;BME280;6580;42.680;23.324;2024-01-10T01:12:36;96431.88;;;-3.13;97.50
13027;BME280;6580;42.680;23.324;2024-01-10T01:15:05;96440.34;;;-3.06;97.27
13027;BME280;6580;42.680;23.324;2024-01-10T01:17:33;96425.59;;;-3.06;98.36
13027;BME280;6580;42.680;23.324;2024-01-10T01:20:06;96432.41;;;-3.02;98.23
13027;BME280;6580;42.680;23.324;2024-01-10T01:22:36;96429.59;;;-3.22;97.01
13027;BME280;6580;42.680;23.324;2024-01-10T01:25:04;96431.47;;;-3.27;98.18
13027;BME280;6580;42.680;23.324;2024-01-10T01:27:32;96425.78;;;-3.12;100.00
13027;BME280;6580;42.680;23.324;2024-01-10T01:29:59;96420.22;;;-3.02;100.00
13027;BME280;6580;42.680;23.324;2024-01-10T01:32:26;96419.50;;;-3.06;100.00
13027;BME280;6580;42.680;23.324;2024-01-10T01:34:53;96399.00;;;-3.15;100.00
13027;BME280;6580;42.680;23.324;2024-01-10T01:37:22;96414.03;;;-2.98;100.00
13027;BME280;6580;42.680;23.324;2024-01-10T01:39:49;96404.72;;;-2.79;100.00
13027;BME280;6580;42.680;23.324;2024-01-10T01:42:17;96397.78;;;-2.80;100.00
13027;BME280;6580;42.680;23.324;2024-01-10T01:44:49;96386.31;;;-2.74;99.82
13027;BME280;6580;42.680;23.324;2024-01-10T01:47:18;96407.88;;;-2.69;99.46
13027;BME280;6580;42.680;23.324;2024-01-10T01:49:44;96413.91;;;-2.69;100.00
13027;BME280;6580;42.680;23.324;2024-01-10T01:52:11;96408.94;;;-2.75;100.00
13027;BME280;6580;42.680;23.324;2024-01-10T01:54:41;96405.50;;;-2.77;100.00
13027;BME280;6580;42.680;23.324;2024-01-10T01:57:08;96403.25;;;-2.87;100.00
13027;BME280;6580;42.680;23.324;2024-01-10T01:59:36;96401.09;;;-3.01;100.00
13027;BME280;6580;42.680;23.324;2024-01-10T02:02:04;96401.09;;;-3.01;100.00
13027;BME280;6580;42.680;23.324;2024-01-10T02:04:33;96377.56;;;-2.98;100.00
13027;BME280;6580;42.680;23.324;2024-01-10T02:07:01;96394.91;;;-2.98;100.00
13027;BME280;6580;42.680;23.324;2024-01-10T02:09:28;96392.47;;;-3.03;100.00
13027;BME280;6580;42.680;23.324;2024-01-10T02:11:56;96386.63;;;-2.83;100.00
13027;BME280;6580;42.680;23.324;2024-01-10T02:14:24;96378.34;;;-2.96;100.00
13027;BME280;6580;42.680;23.324;2024-01-10T02:16:53;96391.47;;;-2.99;100.00
13027;BME280;6580;42.680;23.324;2024-01-10T02:19:22;96389.47;;;-2.91;100.00
13027;BME280;6580;42.680;23.324;2024-01-10T02:21:49;96375.84;;;-2.99;100.00
13027;BME280;6580;42.680;23.324;2024-01-10T02:24:17;96385.22;;;-2.93;100.00
13027;BME280;6580;42.680;23.324;2024-01-10T02:26:46;96391.06;;;-2.87;100.00
13027;BME280;6580;42.680;23.324;2024-01-10T02:29:13;96383.47;;;-2.93;100.00
13027;BME280;6580;42.680;23.324;2024-01-10T02:31:40;96391.47;;;-2.99;100.00
13027;BME280;6580;42.680;23.324;2024-01-10T02:34:07;96386.38;;;-3.02;100.00
13027;BME280;6580;42.680;23.324;2024-01-10T02:36:33;96384.06;;;-2.85;100.00
13027;BME280;6580;42.680;23.324;2024-01-10T02:39:02;96379.53;;;-2.80;100.00
13027;BME280;6580;42.680;23.324;2024-01-10T02:41:29;96379.19;;;-2.95;100.00
13027;BME280;6580;42.680;23.324;2024-01-10T02:43:58;96391.47;;;-2.99;100.00
13027;BME280;6580;42.680;23.324;2024-01-10T02:46:27;96379.66;;;-2.83;99.92
13027;BME280;6580;42.680;23.324;2024-01-10T02:48:54;96388.47;;;-2.87;98.16
13027;BME280;6580;42.680;23.324;2024-01-10T02:51:23;96385.56;;;-3.03;98.36
13027;BME280;6580;42.680;23.324;2024-01-10T02:53:52;96386.91;;;-2.92;97.50
13027;BME280;6580;42.680;23.324;2024-01-10T02:56:19;96392.56;;;-3.05;94.73
13027;BME280;6580;42.680;23.324;2024-01-10T02:58:47;96397.22;;;-3.15;94.96
13027;BME280;6580;42.680;23.324;2024-01-10T03:01:16;96394.63;;;-3.15;97.07
13027;BME280;6580;42.680;23.324;2024-01-10T03:03:43;96396.75;;;-3.27;98.61
13027;BME280;6580;42.680;23.324;2024-01-10T03:06:10;96393.38;;;-3.03;96.97
13027;BME280;6580;42.680;23.324;2024-01-10T03:08:37;96384.75;;;-3.05;94.79
13027;BME280;6580;42.680;23.324;2024-01-10T03:11:05;96387.56;;;-3.11;94.92
13027;BME280;6580;42.680;23.324;2024-01-10T03:13:33;96385.53;;;-3.02;92.69
13027;BME280;6580;42.680;23.324;2024-01-10T03:16:00;96374.91;;;-3.23;92.99
13027;BME280;6580;42.680;23.324;2024-01-10T03:18:28;96396.03;;;-3.05;93.11
13027;BME280;6580;42.680;23.324;2024-01-10T03:20:56;96399.38;;;-3.02;92.11
13027;BME280;6580;42.680;23.324;2024-01-10T03:23:24;96400.91;;;-2.95;94.35
13027;BME280;6580;42.680;23.324;2024-01-10T03:25:55;96407.28;;;-3.04;94.72
13027;BME280;6580;42.680;23.324;2024-01-10T03:28:23;96397.13;;;-3.12;93.87
13027;BME280;6580;42.680;23.324;2024-01-10T03:30:50;96406.75;;;-3.14;96.74
13027;BME280;6580;42.680;23.324;2024-01-10T03:33:20;96398.41;;;-2.98;97.18
13027;BME280;6580;42.680;23.324;2024-01-10T03:35:49;96404.91;;;-2.85;97.41
13027;BME280;6580;42.680;23.324;2024-01-10T03:38:16;96395.59;;;-2.92;96.57
13027;BME280;6580;42.680;23.324;2024-01-10T03:40:44;96399.31;;;-3.00;96.50
13027;BME280;6580;42.680;23.324;2024-01-10T03:43:11;96401.00;;;-2.98;95.18
13027;BME280;6580;42.680;23.324;2024-01-10T03:45:39;96394.13;;;-2.74;95.82
13027;BME280;6580;42.680;23.324;2024-01-10T03:48:08;96396.19;;;-2.84;94.54
13027;BME280;6580;42.680;23.324;2024-01-10T03:50:36;96398.88;;;-2.61;94.42
13027;BME280;6580;42.680;23.324;2024-01-10T03:53:05;96392.88;;;-2.63;94.92
13027;BME280;6580;42.680;23.324;2024-01-10T03:55:33;96391.53;;;-2.74;94.22
13027;BME280;6580;42.680;23.324;2024-01-10T03:58:00;96391.22;;;-2.65;95.30
13027;BME280;6580;42.680;23.324;2024-01-10T04:00:27;96399.88;;;-2.65;95.96
13027;BME280;6580;42.680;23.324;2024-01-10T04:02:54;96400.06;;;-2.71;95.83
13027;BME280;6580;42.680;23.324;2024-01-10T04:05:22;96391.09;;;-2.62;94.87
13027;BME280;6580;42.680;23.324;2024-01-10T04:07:50;96404.38;;;-2.70;94.89
13027;BME280;6580;42.680;23.324;2024-01-10T04:10:20;96400.97;;;-2.72;97.44
13027;BME280;6580;42.680;23.324;2024-01-10T04:12:47;96416.69;;;-2.73;99.53
13027;BME280;6580;42.680;23.324;2024-01-10T04:15:14;96408.88;;;-2.73;97.62
13027;BME280;6580;42.680;23.324;2024-01-10T04:17:41;96395.28;;;-2.83;98.45
13027;BME280;6580;42.680;23.324;2024-01-10T04:20:09;96413.78;;;-2.90;95.95
13027;BME280;6580;42.680;23.324;2024-01-10T04:22:36;96416.19;;;-2.84;96.25
13027;BME280;6580;42.680;23.324;2024-01-10T04:25:06;96412.00;;;-2.90;95.46
13027;BME280;6580;42.680;23.324;2024-01-10T04:27:35;96398.19;;;-3.17;93.76
13027;BME280;6580;42.680;23.324;2024-01-10T04:30:02;96418.34;;;-2.97;92.69
13027;BME280;6580;42.680;23.324;2024-01-10T04:32:29;96431.00;;;-3.12;95.22
13027;BME280;6580;42.680;23.324;2024-01-10T04:34:56;96428.13;;;-3.04;93.70
13027;BME280;6580;42.680;23.324;2024-01-10T04:37:24;96427.09;;;-2.99;92.29
13027;BME280;6580;42.680;23.324;2024-01-10T04:39:52;96432.91;;;-2.91;91.54
13027;BME280;6580;42.680;23.324;2024-01-10T04:42:19;96428.75;;;-2.97;90.42
13027;BME280;6580;42.680;23.324;2024-01-10T04:44:50;96438.28;;;-2.96;89.95
13027;BME280;6580;42.680;23.324;2024-01-10T04:47:18;96440.41;;;-2.81;91.29
13027;BME280;6580;42.680;23.324;2024-01-10T04:49:46;96442.66;;;-2.70;87.99
13027;BME280;6580;42.680;23.324;2024-01-10T04:52:13;96421.75;;;-2.95;87.61
13027;BME280;6580;42.680;23.324;2024-01-10T04:54:40;96448.31;;;-2.84;89.45
13027;BME280;6580;42.680;23.324;2024-01-10T04:57:07;96449.38;;;-2.91;86.40
13027;BME280;6580;42.680;23.324;2024-01-10T04:59:35;96451.22;;;-2.93;88.73
13027;BME280;6580;42.680;23.324;2024-01-10T05:02:04;96452.69;;;-3.11;87.62
13027;BME280;6580;42.680;23.324;2024-01-10T05:04:31;96449.47;;;-3.19;88.98
13027;BME280;6580;42.680;23.324;2024-01-10T05:06:58;96457.03;;;-3.12;89.02
13027;BME280;6580;42.680;23.324;2024-01-10T05:09:25;96449.28;;;-3.13;88.73
13027;BME280;6580;42.680;23.324;2024-01-10T05:11:55;96441.34;;;-2.83;89.40
13027;BME280;6580;42.680;23.324;2024-01-10T05:14:22;96420.06;;;-2.97;92.13
13027;BME280;6580;42.680;23.324;2024-01-10T05:16:49;96451.19;;;-2.65;92.10
13027;BME280;6580;42.680;23.324;2024-01-10T05:19:19;96451.97;;;-2.63;92.33
13027;BME280;6580;42.680;23.324;2024-01-10T05:21:46;96450.34;;;-2.93;89.86
13027;BME280;6580;42.680;23.324;2024-01-10T05:24:13;96460.19;;;-3.01;90.30
13027;BME280;6580;42.680;23.324;2024-01-10T05:26:42;96465.38;;;-3.01;90.70
13027;BME280;6580;42.680;23.324;2024-01-10T05:29:09;96469.50;;;-2.94;91.16
13027;BME280;6580;42.680;23.324;2024-01-10T05:31:36;96456.47;;;-2.94;93.45
13027;BME280;6580;42.680;23.324;2024-01-10T05:34:03;96472.84;;;-2.91;92.49
13027;BME280;6580;42.680;23.324;2024-01-10T05:36:33;96474.94;;;-2.74;93.31
13027;BME280;6580;42.680;23.324;2024-01-10T05:39:00;96462.72;;;-3.00;89.64
13027;BME280;6580;42.680;23.324;2024-01-10T05:41:27;96478.25;;;-2.69;89.31
13027;BME280;6580;42.680;23.324;2024-01-10T05:43:55;96471.19;;;-2.93;86.75
13027;BME280;6580;42.680;23.324;2024-01-10T05:46:23;96476.88;;;-2.81;86.42
13027;BME280;6580;42.680;23.324;2024-01-10T05:48:49;96476.00;;;-3.07;84.52
13027;BME280;6580;42.680;23.324;2024-01-10T05:51:16;96478.06;;;-2.91;85.08
13027;BME280;6580;42.680;23.324;2024-01-10T05:53:45;96473.91;;;-2.96;85.00
13027;BME280;6580;42.680;23.324;2024-01-10T05:56:13;96469.97;;;-2.82;84.37
13027;BME280;6580;42.680;23.324;2024-01-10T05:58:40;96475.41;;;-2.89;82.28
13027;BME280;6580;42.680;23.324;2024-01-10T06:01:08;96481.59;;;-2.92;82.21
13027;BME280;6580;42.680;23.324;2024-01-10T06:03:37;96477.97;;;-2.88;81.43
13027;BME280;6580;42.680;23.324;2024-01-10T06:06:05;96485.88;;;-2.91;81.29
13027;BME280;6580;42.680;23.324;2024-01-10T06:08:32;96485.09;;;-2.93;81.79
13027;BME280;6580;42.680;23.324;2024-01-10T06:11:04;96457.69;;;-3.05;80.96
13027;BME280;6580;42.680;23.324;2024-01-10T06:13:35;96496.53;;;-2.98;81.90
13027;BME280;6580;42.680;23.324;2024-01-10T06:16:08;96498.13;;;-2.93;83.17
13027;BME280;6580;42.680;23.324;2024-01-10T06:18:36;96490.50;;;-2.73;82.59
13027;BME280;6580;42.680;23.324;2024-01-10T06:21:03;96496.66;;;-2.74;79.16
13027;BME280;6580;42.680;23.324;2024-01-10T06:23:31;96485.94;;;-2.92;79.35
13027;BME280;6580;42.680;23.324;2024-01-10T06:25:59;96504.97;;;-2.90;82.34
13027;BME280;6580;42.680;23.324;2024-01-10T06:28:28;96504.34;;;-2.98;84.68
13027;BME280;6580;42.680;23.324;2024-01-10T06:30:55;96510.66;;;-2.78;84.56
13027;BME280;6580;42.680;23.324;2024-01-10T06:33:22;96513.19;;;-2.75;78.12
13027;BME280;6580;42.680;23.324;2024-01-10T06:35:52;96508.13;;;-2.53;79.54
13027;BME280;6580;42.680;23.324;2024-01-10T06:38:19;96508.88;;;-2.50;77.73
13027;BME280;6580;42.680;23.324;2024-01-10T06:40:51;96494.16;;;-3.05;74.10
13027;BME280;6580;42.680;23.324;2024-01-10T06:43:18;96511.59;;;-2.80;77.43
13027;BME280;6580;42.680;23.324;2024-01-10T06:45:47;96526.88;;;-2.96;73.86
13027;BME280;6580;42.680;23.324;2024-01-10T06:48:15;96521.75;;;-2.99;73.66
13027;BME280;6580;42.680;23.324;2024-01-10T06:50:44;96524.94;;;-3.18;72.12
13027;BME280;6580;42.680;23.324;2024-01-10T06:53:15;96523.69;;;-3.05;72.18
13027;BME280;6580;42.680;23.324;2024-01-10T06:55:42;96527.38;;;-2.85;72.06
13027;BME280;6580;42.680;23.324;2024-01-10T06:58:09;96524.63;;;-2.80;71.56
13027;BME280;6580;42.680;23.324;2024-01-10T07:00:36;96521.09;;;-3.05;70.42
13027;BME280;6580;42.680;23.324;2024-01-10T07:03:05;96539.66;;;-2.88;69.80
13027;BME280;6580;42.680;23.324;2024-01-10T07:05:32;96537.31;;;-2.96;69.73
13027;BME280;6580;42.680;23.324;2024-01-10T07:07:59;96534.53;;;-2.64;69.37
13027;BME280;6580;42.680;23.324;2024-01-10T07:10:28;96538.84;;;-2.63;69.83
13027;BME280;6580;42.680;23.324;2024-01-10T07:12:55;96535.59;;;-2.43;68.40
13027;BME280;6580;42.680;23.324;2024-01-10T07:15:23;96529.66;;;-2.21;68.45
13027;BME280;6580;42.680;23.324;2024-01-10T07:17:50;96537.06;;;-2.09;69.64
13027;BME280;6580;42.680;23.324;2024-01-10T07:20:18;96533.28;;;-1.76;69.84
13027;BME280;6580;42.680;23.324;2024-01-10T07:22:45;96532.00;;;-1.65;67.52
13027;BME280;6580;42.680;23.324;2024-01-10T07:25:13;96536.44;;;-1.67;66.20
13027;BME280;6580;42.680;23.324;2024-01-10T07:27:40;96540.81;;;-1.67;64.27
13027;BME280;6580;42.680;23.324;2024-01-10T07:30:08;96537.13;;;-1.62;61.17
13027;BME280;6580;42.680;23.324;2024-01-10T07:32:39;96541.56;;;-1.64;60.23
13027;BME280;6580;42.680;23.324;2024-01-10T07:35:07;96544.97;;;-1.86;61.34
13027;BME280;6580;42.680;23.324;2024-01-10T07:37:39;96544.34;;;-1.45;62.06
13027;BME280;6580;42.680;23.324;2024-01-10T07:40:07;96537.22;;;-1.40;60.44
13027;BME280;6580;42.680;23.324;2024-01-10T07:42:37;96551.94;;;-1.62;60.42
13027;BME280;6580;42.680;23.324;2024-01-10T07:45:06;96553.44;;;-1.55;59.48
13027;BME280;6580;42.680;23.324;2024-01-10T07:47:35;96556.84;;;-1.78;59.50
13027;BME280;6580;42.680;23.324;2024-01-10T07:50:04;96559.72;;;-1.85;60.00
13027;BME280;6580;42.680;23.324;2024-01-10T07:52:32;96556.53;;;-1.69;58.42
13027;BME280;6580;42.680;23.324;2024-01-10T07:55:02;96544.06;;;-1.85;59.04
13027;BME280;6580;42.680;23.324;2024-01-10T07:57:30;96561.16;;;-2.01;57.53
13027;BME280;6580;42.680;23.324;2024-01-10T07:59:58;96562.47;;;-1.90;59.94
13027;BME280;6580;42.680;23.324;2024-01-10T08:02:25;96542.25;;;-1.59;61.71
13027;BME280;6580;42.680;23.324;2024-01-10T08:04:52;96557.53;;;-1.25;58.89
13027;BME280;6580;42.680;23.324;2024-01-10T08:07:19;96551.28;;;-1.44;57.96
13027;BME280;6580;42.680;23.324;2024-01-10T08:09:47;96546.09;;;-0.99;58.87
13027;BME280;6580;42.680;23.324;2024-01-10T08:12:15;96547.63;;;-0.93;58.09
13027;BME280;6580;42.680;23.324;2024-01-10T08:14:45;96558.47;;;-1.03;57.44
13027;BME280;6580;42.680;23.324;2024-01-10T08:17:15;96545.50;;;-0.84;58.11
13027;BME280;6580;42.680;23.324;2024-01-10T08:19:42;96561.78;;;-0.33;56.62
13027;BME280;6580;42.680;23.324;2024-01-10T08:22:10;96563.09;;;-0.44;55.65
13027;BME280;6580;42.680;23.324;2024-01-10T08:24:38;96551.00;;;-0.68;57.83
13027;BME280;6580;42.680;23.324;2024-01-10T08:27:05;96560.00;;;-0.54;53.53
13027;BME280;6580;42.680;23.324;2024-01-10T08:29:34;96550.75;;;-0.62;53.70
13027;BME280;6580;42.680;23.324;2024-01-10T08:32:04;96558.69;;;-0.87;54.05
13027;BME280;6580;42.680;23.324;2024-01-10T08:34:32;96562.31;;;-0.91;54.93
13027;BME280;6580;42.680;23.324;2024-01-10T08:36:58;96562.69;;;-0.55;56.58
13027;BME280;6580;42.680;23.324;2024-01-10T08:39:25;96557.94;;;-0.67;54.42
13027;BME280;6580;42.680;23.324;2024-01-10T08:41:53;96545.66;;;-0.65;55.78
13027;BME280;6580;42.680;23.324;2024-01-10T08:44:21;96563.66;;;-0.58;57.05
13027;BME280;6580;42.680;23.324;2024-01-10T08:46:50;96569.81;;;-0.59;58.13
13027;BME280;6580;42.680;23.324;2024-01-10T08:49:18;96564.09;;;-0.68;57.42
13027;BME280;6580;42.680;23.324;2024-01-10T08:51:45;96550.31;;;-0.73;56.92
13027;BME280;6580;42.680;23.324;2024-01-10T08:54:12;96565.19;;;-0.97;56.37
13027;BME280;6580;42.680;23.324;2024-01-10T08:56:43;96561.31;;;-1.32;57.38
13027;BME280;6580;42.680;23.324;2024-01-10T08:59:11;96571.09;;;-1.14;58.83
13027;BME280;6580;42.680;23.324;2024-01-10T09:01:38;96554.38;;;-0.88;59.56
13027;BME280;6580;42.680;23.324;2024-01-10T09:04:08;96559.34;;;-1.03;56.58
13027;BME280;6580;42.680;23.324;2024-01-10T09:06:35;96557.34;;;-1.19;57.76
13027;BME280;6580;42.680;23.324;2024-01-10T09:09:02;96558.06;;;-1.16;59.72
13027;BME280;6580;42.680;23.324;2024-01-10T09:11:30;96559.84;;;-0.94;59.94
13027;BME280;6580;42.680;23.324;2024-01-10T09:13:57;96555.81;;;-1.02;58.19
13027;BME280;6580;42.680;23.324;2024-01-10T09:16:24;96559.16;;;-1.21;56.57
13027;BME280;6580;42.680;23.324;2024-01-10T09:18:52;96560.19;;;-1.02;55.80
13027;BME280;6580;42.680;23.324;2024-01-10T09:21:21;96558.94;;;-1.15;58.66
13027;BME280;6580;42.680;23.324;2024-01-10T09:23:48;96544.72;;;-1.79;58.95
13027;BME280;6580;42.680;23.324;2024-01-10T09:26:16;96556.28;;;-1.38;59.12
13027;BME280;6580;42.680;23.324;2024-01-10T09:28:44;96550.59;;;-1.02;58.15
13027;BME280;6580;42.680;23.324;2024-01-10T09:31:13;96555.34;;;-1.13;59.46
13027;BME280;6580;42.680;23.324;2024-01-10T09:33:40;96549.59;;;-1.00;59.18
13027;BME280;6580;42.680;23.324;2024-01-10T09:36:08;96544.59;;;-0.61;63.28
13027;BME280;6580;42.680;23.324;2024-01-10T09:38:37;96540.28;;;-0.84;63.57
13027;BME280;6580;42.680;23.324;2024-01-10T09:41:04;96546.88;;;-0.74;63.45
13027;BME280;6580;42.680;23.324;2024-01-10T09:43:32;96539.25;;;-0.58;63.33
13027;BME280;6580;42.680;23.324;2024-01-10T09:46:01;96541.13;;;-0.83;58.20
13027;BME280;6580;42.680;23.324;2024-01-10T09:48:29;96544.59;;;-0.83;58.55
13027;BME280;6580;42.680;23.324;2024-01-10T09:50:56;96536.72;;;-0.60;62.12
13027;BME280;6580;42.680;23.324;2024-01-10T09:53:24;96535.97;;;-0.63;59.42
13027;BME280;6580;42.680;23.324;2024-01-10T09:55:53;96534.69;;;-0.75;59.15
13027;BME280;6580;42.680;23.324;2024-01-10T09:58:23;96523.06;;;-0.68;59.28
13027;BME280;6580;42.680;23.324;2024-01-10T10:00:51;96526.94;;;-0.55;58.58
13027;BME280;6580;42.680;23.324;2024-01-10T10:03:19;96520.81;;;-0.34;57.70
13027;BME280;6580;42.680;23.324;2024-01-10T10:05:46;96529.63;;;-0.15;56.04
13027;BME280;6580;42.680;23.324;2024-01-10T10:08:14;96509.09;;;-0.04;58.28
13027;BME280;6580;42.680;23.324;2024-01-10T10:10:48;96500.50;;;-0.07;60.16
13027;BME280;6580;42.680;23.324;2024-01-10T10:13:31;96509.75;;;-0.19;59.37
13027;BME280;6580;42.680;23.324;2024-01-10T10:16:02;96495.56;;;0.06;59.06
13027;BME280;6580;42.680;23.324;2024-01-10T10:18:31;96495.41;;;0.09;59.01
13027;BME280;6580;42.680;23.324;2024-01-10T10:21:08;96486.56;;;-0.08;59.88
13027;BME280;6580;42.680;23.324;2024-01-10T10:23:38;96480.78;;;-0.36;64.25
13027;BME280;6580;42.680;23.324;2024-01-10T10:26:16;96485.84;;;-0.31;66.43
13027;BME280;6580;42.680;23.324;2024-01-10T10:28:50;96474.28;;;-0.06;65.38
13027;BME280;6580;42.680;23.324;2024-01-10T10:31:21;96473.91;;;0.80;62.71
13027;BME280;6580;42.680;23.324;2024-01-10T10:33:50;96465.88;;;2.73;56.97
13027;BME280;6580;42.680;23.324;2024-01-10T10:36:25;96454.38;;;4.13;55.53
13027;BME280;6580;42.680;23.324;2024-01-10T10:38:52;96447.69;;;5.06;52.10
13027;BME280;6580;42.680;23.324;2024-01-10T10:41:20;96433.19;;;6.19;47.67
13027;BME280;6580;42.680;23.324;2024-01-10T10:43:50;96424.91;;;6.50;46.08
13027;BME280;6580;42.680;23.324;2024-01-10T10:46:20;96429.28;;;6.12;45.21
13027;BME280;6580;42.680;23.324;2024-01-10T10:48:51;96424.47;;;7.05;44.02
13027;BME280;6580;42.680;23.324;2024-01-10T10:51:25;96404.00;;;8.02;41.94
13027;BME280;6580;42.680;23.324;2024-01-10T10:53:56;96408.38;;;8.03;40.96
13027;BME280;6580;42.680;23.324;2024-01-10T10:56:29;96403.94;;;8.38;40.50
13027;BME280;6580;42.680;23.324;2024-01-10T10:58:58;96401.59;;;8.68;38.34
13027;BME280;6580;42.680;23.324;2024-01-10T11:01:27;96398.34;;;8.07;39.91
13027;BME280;6580;42.680;23.324;2024-01-10T11:03:55;96391.94;;;7.99;39.76
13027;BME280;6580;42.680;23.324;2024-01-10T11:06:23;96372.88;;;7.47;40.68
13027;BME280;6580;42.680;23.324;2024-01-10T11:09:00;96375.03;;;8.57;41.90
13027;BME280;6580;42.680;23.324;2024-01-10T11:11:37;96368.53;;;8.72;38.17
13027;BME280;6580;42.680;23.324;2024-01-10T11:14:23;96372.03;;;9.38;36.19
13027;BME280;6580;42.680;23.324;2024-01-10T11:20:10;96372.22;;;9.46;36.03
13027;BME280;6580;42.680;23.324;2024-01-10T11:22:53;96362.66;;;10.08;34.50
13027;BME280;6580;42.680;23.324;2024-01-10T11:25:26;96356.38;;;10.09;34.20
13027;BME280;6580;42.680;23.324;2024-01-10T11:27:55;96356.53;;;10.28;33.13
13027;BME280;6580;42.680;23.324;2024-01-10T11:30:33;96353.75;;;9.87;33.42
13027;BME280;6580;42.680;23.324;2024-01-10T11:33:01;96347.59;;;9.44;35.08
13027;BME280;6580;42.680;23.324;2024-01-10T11:35:34;96348.72;;;8.54;36.04
13027;BME280;6580;42.680;23.324;2024-01-10T11:38:04;96343.09;;;9.98;35.05
13027;BME280;6580;42.680;23.324;2024-01-10T11:40:49;96340.53;;;9.97;33.29
13027;BME280;6580;42.680;23.324;2024-01-10T11:43:21;96323.72;;;10.48;33.70
13027;BME280;6580;42.680;23.324;2024-01-10T11:45:54;96328.13;;;11.09;33.90
13027;BME280;6580;42.680;23.324;2024-01-10T11:48:27;96332.31;;;11.50;33.10
13027;BME280;6580;42.680;23.324;2024-01-10T11:50:57;96325.00;;;10.12;34.44
13027;BME280;6580;42.680;23.324;2024-01-10T11:53:41;96319.16;;;11.10;32.12
13027;BME280;6580;42.680;23.324;2024-01-10T11:56:12;96317.91;;;11.23;33.20
13027;BME280;6580;42.680;23.324;2024-01-10T11:59:01;96319.53;;;9.62;34.64
13027;BME280;6580;42.680;23.324;2024-01-10T12:01:30;96306.34;;;10.74;34.71
13027;BME280;6580;42.680;23.324;2024-01-10T12:03:58;96308.38;;;11.20;32.89
13027;BME280;6580;42.680;23.324;2024-01-10T12:06:25;96302.75;;;10.84;32.66
13027;BME280;6580;42.680;23.324;2024-01-10T12:08:52;96300.81;;;10.36;33.31
13027;BME280;6580;42.680;23.324;2024-01-10T12:11:19;96300.50;;;9.98;33.56
13027;BME280;6580;42.680;23.324;2024-01-10T12:13:47;96307.84;;;9.74;33.50
13027;BME280;6580;42.680;23.324;2024-01-10T12:16:14;96305.28;;;9.52;34.88
13027;BME280;6580;42.680;23.324;2024-01-10T12:18:44;96290.53;;;9.48;34.80
13027;BME280;6580;42.680;23.324;2024-01-10T12:21:11;96288.53;;;9.30;34.77
13027;BME280;6580;42.680;23.324;2024-01-10T12:23:39;96285.88;;;10.04;34.45
13027;BME280;6580;42.680;23.324;2024-01-10T12:26:08;96293.25;;;10.41;34.12
13027;BME280;6580;42.680;23.324;2024-01-10T12:28:38;96286.84;;;10.43;34.25
13027;BME280;6580;42.680;23.324;2024-01-10T12:31:06;96287.66;;;10.64;33.43
13027;BME280;6580;42.680;23.324;2024-01-10T12:33:37;96297.94;;;9.76;34.63
13027;BME280;6580;42.680;23.324;2024-01-10T12:36:07;96253.84;;;9.94;33.39
13027;BME280;6580;42.680;23.324;2024-01-10T12:38:35;96295.66;;;9.40;35.32
13027;BME280;6580;42.680;23.324;2024-01-10T12:41:03;96302.94;;;9.16;35.74
13027;BME280;6580;42.680;23.324;2024-01-10T12:43:30;96290.59;;;9.26;36.43
13027;BME280;6580;42.680;23.324;2024-01-10T12:46:05;96276.78;;;9.43;37.25
13027;BME280;6580;42.680;23.324;2024-01-10T12:48:33;96288.19;;;9.12;37.32
13027;BME280;6580;42.680;23.324;2024-01-10T12:51:04;96292.41;;;9.68;36.44
13027;BME280;6580;42.680;23.324;2024-01-10T12:53:35;96276.31;;;9.38;35.75
13027;BME280;6580;42.680;23.324;2024-01-10T12:56:03;96299.13;;;9.41;35.86
13027;BME280;6580;42.680;23.324;2024-01-10T12:58:30;96296.66;;;8.30;39.86
13027;BME280;6580;42.680;23.324;2024-01-10T13:00:58;96294.28;;;8.82;37.93
13027;BME280;6580;42.680;23.324;2024-01-10T13:03:26;96289.66;;;9.27;38.30
13027;BME280;6580;42.680;23.324;2024-01-10T13:05:53;96295.97;;;8.50;38.06
13027;BME280;6580;42.680;23.324;2024-01-10T13:08:20;96295.94;;;8.94;38.35
13027;BME280;6580;42.680;23.324;2024-01-10T13:10:49;96298.47;;;9.06;37.21